sensor_id;sensor_type;location;lat;lon;timestamp;pressure;altitude;pressure_sealevel;temperature;humidity
79236;BME280;69062;47.460;18.812;2024-02-26T00:00:22;99392.84;;;9.35;87.76
79236;BME280;69062;47.460;18.812;2024-02-26T00:02:25;99383.81;;;9.39;87.66
79236;BME280;69062;47.460;18.812;2024-02-26T00:04:28;99380.44;;;9.37;87.84
79236;BME280;69062;47.460;18.812;2024-02-26T00:06:31;99380.03;;;9.29;88.72
79236;BME280;69062;47.460;18.812;2024-02-26T00:08:34;99387.50;;;9.36;87.35
79236;BME280;69062;47.460;18.812;2024-02-26T00:10:37;99380.53;;;9.35;88.29
79236;BME280;69062;47.460;18.812;2024-02-26T00:12:39;99394.47;;;9.37;87.06
79236;BME280;69062;47.460;18.812;2024-02-26T00:14:42;99395.91;;;9.43;87.64
79236;BME280;69062;47.460;18.812;2024-02-26T00:16:47;99389.19;;;9.37;88.09
79236;BME280;69062;47.460;18.812;2024-02-26T00:18:50;99387.75;;;9.32;87.79
79236;BME280;69062;47.460;18.812;2024-02-26T00:20:53;99382.47;;;9.32;88.19
79236;BME280;69062;47.460;18.812;2024-02-26T00:22:56;99382.75;;;9.27;88.47
79236;BME280;69062;47.460;18.812;2024-02-26T00:25:00;99382.75;;;9.27;87.88
79236;BME280;69062;47.460;18.812;2024-02-26T00:27:03;99385.53;;;9.24;88.38
79236;BME280;69062;47.460;18.812;2024-02-26T00:29:06;99388.28;;;9.23;88.76
79236;BME280;69062;47.460;18.812;2024-02-26T00:31:09;99386.91;;;9.31;88.68
79236;BME280;69062;47.460;18.812;2024-02-26T00:33:13;99386.91;;;9.31;88.83
79236;BME280;69062;47.460;18.812;2024-02-26T00:35:17;99389.19;;;9.37;88.57
79236;BME280;69062;47.460;18.812;2024-02-26T00:37:23;99380.38;;;9.23;89.33
79236;BME280;69062;47.460;18.812;2024-02-26T00:39:26;99377.41;;;9.29;88.47
79236;BME280;69062;47.460;18.812;2024-02-26T00:41:29;99377.09;;;9.33;88.55
79236;BME280;69062;47.460;18.812;2024-02-26T00:43:32;99367.25;;;9.37;88.22
79236;BME280;69062;47.460;18.812;2024-02-26T00:45:35;99371.00;;;9.33;88.04
79236;BME280;69062;47.460;18.812;2024-02-26T00:47:37;99378.75;;;9.36;88.49
79236;BME280;69062;47.460;18.812;2024-02-26T00:49:43;99370.16;;;9.32;88.44
79236;BME280;69062;47.460;18.812;2024-02-26T00:51:46;99367.41;;;9.34;88.92
79236;BME280;69062;47.460;18.812;2024-02-26T00:53:48;99367.41;;;9.34;88.85
79236;BME280;69062;47.460;18.812;2024-02-26T00:55:51;99364.66;;;9.21;89.34
79236;BME280;69062;47.460;18.812;2024-02-26T00:57:54;99365.06;;;9.29;89.49
79236;BME280;69062;47.460;18.812;2024-02-26T00:59:57;99354.03;;;9.23;89.32
79236;BME280;69062;47.460;18.812;2024-02-26T01:01:59;99359.03;;;9.27;88.93
79236;BME280;69062;47.460;18.812;2024-02-26T01:04:04;99362.84;;;9.37;89.28
79236;BME280;69062;47.460;18.812;2024-02-26T01:06:08;99356.03;;;9.33;89.12
79236;BME280;69062;47.460;18.812;2024-02-26T01:08:11;99353.84;;;9.26;89.29
79236;BME280;69062;47.460;18.812;2024-02-26T01:10:13;99347.63;;;9.27;88.45
79236;BME280;69062;47.460;18.812;2024-02-26T01:12:16;99344.16;;;9.26;88.66
79236;BME280;69062;47.460;18.812;2024-02-26T01:14:19;99339.91;;;9.24;89.03
79236;BME280;69062;47.460;18.812;2024-02-26T01:16:23;99345.69;;;9.30;88.51
79236;BME280;69062;47.460;18.812;2024-02-26T01:18:26;99347.56;;;9.28;89.09
79236;BME280;69062;47.460;18.812;2024-02-26T01:20:28;99336.19;;;9.28;88.55
79236;BME280;69062;47.460;18.812;2024-02-26T01:22:31;99333.16;;;9.34;88.53
79236;BME280;69062;47.460;18.812;2024-02-26T01:24:34;99337.88;;;9.29;88.26
79236;BME280;69062;47.460;18.812;2024-02-26T01:26:37;99339.03;;;9.39;88.84
79236;BME280;69062;47.460;18.812;2024-02-26T01:28:40;99338.94;;;9.40;88.18
79236;BME280;69062;47.460;18.812;2024-02-26T01:30:42;99342.25;;;9.44;87.91
79236;BME280;69062;47.460;18.812;2024-02-26T01:32:45;99338.19;;;9.38;87.63
79236;BME280;69062;47.460;18.812;2024-02-26T01:34:48;99336.38;;;9.39;87.79
79236;BME280;69062;47.460;18.812;2024-02-26T01:36:51;99341.41;;;9.44;88.17
79236;BME280;69062;47.460;18.812;2024-02-26T01:38:54;99338.03;;;9.42;87.36
79236;BME280;69062;47.460;18.812;2024-02-26T01:40:57;99337.06;;;9.43;88.01
79236;BME280;69062;47.460;18.812;2024-02-26T01:42:59;99337.13;;;9.41;87.94
79236;BME280;69062;47.460;18.812;2024-02-26T01:45:04;99331.97;;;9.39;87.60
79236;BME280;69062;47.460;18.812;2024-02-26T01:47:11;99334.50;;;9.41;87.69
79236;BME280;69062;47.460;18.812;2024-02-26T01:49:15;99323.97;;;9.41;88.30
79236;BME280;69062;47.460;18.812;2024-02-26T01:51:18;99327.47;;;9.42;87.56
79236;BME280;69062;47.460;18.812;2024-02-26T01:53:22;99330.38;;;9.37;87.88
79236;BME280;69062;47.460;18.812;2024-02-26T01:55:26;99325.50;;;9.45;87.84
79236;BME280;69062;47.460;18.812;2024-02-26T01:57:29;99324.47;;;9.48;87.19
79236;BME280;69062;47.460;18.812;2024-02-26T01:59:34;99330.66;;;9.47;87.24
79236;BME280;69062;47.460;18.812;2024-02-26T02:01:40;99330.41;;;9.51;87.19
79236;BME280;69062;47.460;18.812;2024-02-26T02:03:46;99340.47;;;9.45;86.92
79236;BME280;69062;47.460;18.812;2024-02-26T02:05:49;99343.34;;;9.40;87.31
79236;BME280;69062;47.460;18.812;2024-02-26T02:07:53;99342.78;;;9.35;87.74
79236;BME280;69062;47.460;18.812;2024-02-26T02:09:56;99348.41;;;9.29;87.76
79236;BME280;69062;47.460;18.812;2024-02-26T02:11:59;99349.69;;;9.22;88.32
79236;BME280;69062;47.460;18.812;2024-02-26T02:14:02;99333.88;;;9.22;88.44
79236;BME280;69062;47.460;18.812;2024-02-26T02:16:07;99339.72;;;9.27;88.38
79236;BME280;69062;47.460;18.812;2024-02-26T02:18:10;99336.69;;;9.34;88.24
79236;BME280;69062;47.460;18.812;2024-02-26T02:20:16;99330.28;;;9.38;88.30
79236;BME280;69062;47.460;18.812;2024-02-26T02:22:20;99329.88;;;9.30;87.56
79236;BME280;69062;47.460;18.812;2024-02-26T02:24:23;99338.97;;;9.25;87.82
79236;BME280;69062;47.460;18.812;2024-02-26T02:26:26;99333.63;;;9.10;87.64
79236;BME280;69062;47.460;18.812;2024-02-26T02:28:30;99332.78;;;9.10;88.35
79236;BME280;69062;47.460;18.812;2024-02-26T02:30:33;99332.38;;;9.02;88.63
79236;BME280;69062;47.460;18.812;2024-02-26T02:32:40;99336.72;;;9.03;88.85
79236;BME280;69062;47.460;18.812;2024-02-26T02:34:46;99345.38;;;9.05;89.46
79236;BME280;69062;47.460;18.812;2024-02-26T02:36:52;99340.97;;;9.05;89.94
79236;BME280;69062;47.460;18.812;2024-02-26T02:38:55;99350.63;;;9.05;89.34
79236;BME280;69062;47.460;18.812;2024-02-26T02:40:58;99349.88;;;9.03;88.96
79236;BME280;69062;47.460;18.812;2024-02-26T02:43:00;99340.72;;;8.94;89.45
79236;BME280;69062;47.460;18.812;2024-02-26T02:45:04;99337.22;;;8.94;89.68
79236;BME280;69062;47.460;18.812;2024-02-26T02:47:07;99331.13;;;8.93;89.79
79236;BME280;69062;47.460;18.812;2024-02-26T02:49:10;99330.28;;;8.93;90.08
79236;BME280;69062;47.460;18.812;2024-02-26T02:51:18;99324.72;;;8.97;90.18
79236;BME280;69062;47.460;18.812;2024-02-26T02:53:21;99329.09;;;8.98;89.97
79236;BME280;69062;47.460;18.812;2024-02-26T02:55:24;99331.19;;;9.07;89.51
79236;BME280;69062;47.460;18.812;2024-02-26T02:57:27;99325.41;;;9.01;88.85
79236;BME280;69062;47.460;18.812;2024-02-26T02:59:33;99333.41;;;8.99;89.26
79236;BME280;69062;47.460;18.812;2024-02-26T03:01:36;99332.72;;;8.96;88.52
79236;BME280;69062;47.460;18.812;2024-02-26T03:03:39;99332.13;;;8.91;89.06
79236;BME280;69062;47.460;18.812;2024-02-26T03:05:42;99338.25;;;8.91;89.90
79236;BME280;69062;47.460;18.812;2024-02-26T03:07:45;99327.53;;;8.94;89.23
79236;BME280;69062;47.460;18.812;2024-02-26T03:09:48;99331.88;;;8.95;89.37
79236;BME280;69062;47.460;18.812;2024-02-26T03:11:50;99317.09;;;8.93;89.60
79236;BME280;69062;47.460;18.812;2024-02-26T03:14:01;99312.50;;;8.96;89.67
79236;BME280;69062;47.460;18.812;2024-02-26T03:16:05;99321.09;;;9.00;89.60
79236;BME280;69062;47.460;18.812;2024-02-26T03:18:08;99311.06;;;9.06;88.88
79236;BME280;69062;47.460;18.812;2024-02-26T03:20:11;99312.06;;;9.04;88.79
79236;BME280;69062;47.460;18.812;2024-02-26T03:22:14;99310.28;;;9.04;88.71
79236;BME280;69062;47.460;18.812;2024-02-26T03:24:16;99307.13;;;8.98;89.68
79236;BME280;69062;47.460;18.812;2024-02-26T03:26:19;99305.28;;;9.00;89.35
79236;BME280;69062;47.460;18.812;2024-02-26T03:28:22;99304.50;;;8.98;89.64
79236;BME280;69062;47.460;18.812;2024-02-26T03:30:25;99314.13;;;8.99;90.14
79236;BME280;69062;47.460;18.812;2024-02-26T03:32:28;99304.50;;;8.98;89.79
79236;BME280;69062;47.460;18.812;2024-02-26T03:34:32;99305.19;;;9.01;89.81
79236;BME280;69062;47.460;18.812;2024-02-26T03:36:37;99304.16;;;9.04;89.25
79236;BME280;69062;47.460;18.812;2024-02-26T03:38:39;99305.00;;;9.04;89.24
79236;BME280;69062;47.460;18.812;2024-02-26T03:40:42;99294.56;;;9.03;89.20
79236;BME280;69062;47.460;18.812;2024-02-26T03:42:45;99299.69;;;9.06;89.52
79236;BME280;69062;47.460;18.812;2024-02-26T03:44:48;99291.19;;;9.01;89.87
79236;BME280;69062;47.460;18.812;2024-02-26T03:46:51;99286.75;;;9.01;89.85
79236;BME280;69062;47.460;18.812;2024-02-26T03:48:54;99298.66;;;9.08;89.02
79236;BME280;69062;47.460;18.812;2024-02-26T03:50:57;99297.28;;;9.01;89.57
79236;BME280;69062;47.460;18.812;2024-02-26T03:53:00;99294.56;;;9.03;89.30
79236;BME280;69062;47.460;18.812;2024-02-26T03:55:03;99298.03;;;9.03;88.76
79236;BME280;69062;47.460;18.812;2024-02-26T03:57:05;99304.00;;;9.07;89.06
79236;BME280;69062;47.460;18.812;2024-02-26T03:59:08;99299.50;;;9.09;88.77
79236;BME280;69062;47.460;18.812;2024-02-26T04:01:11;99297.03;;;9.06;88.68
79236;BME280;69062;47.460;18.812;2024-02-26T04:03:14;99300.97;;;8.99;88.45
79236;BME280;69062;47.460;18.812;2024-02-26T04:05:17;99297.03;;;8.90;89.10
79236;BME280;69062;47.460;18.812;2024-02-26T04:07:20;99290.19;;;8.88;89.05
79236;BME280;69062;47.460;18.812;2024-02-26T04:09:23;99292.22;;;8.82;89.36
79236;BME280;69062;47.460;18.812;2024-02-26T04:11:26;99295.19;;;8.92;89.71
79236;BME280;69062;47.460;18.812;2024-02-26T04:13:28;99289.25;;;8.89;89.46
79236;BME280;69062;47.460;18.812;2024-02-26T04:15:32;99287.72;;;8.84;89.23
79236;BME280;69062;47.460;18.812;2024-02-26T04:17:36;99286.88;;;8.84;89.85
79236;BME280;69062;47.460;18.812;2024-02-26T04:19:39;99281.03;;;8.79;90.34
79236;BME280;69062;47.460;18.812;2024-02-26T04:21:41;99289.56;;;8.82;90.03
79236;BME280;69062;47.460;18.812;2024-02-26T04:23:44;99290.44;;;8.83;90.28
79236;BME280;69062;47.460;18.812;2024-02-26T04:25:47;99281.78;;;8.81;89.73
79236;BME280;69062;47.460;18.812;2024-02-26T04:27:50;99283.31;;;8.85;89.67
79236;BME280;69062;47.460;18.812;2024-02-26T04:29:53;99280.84;;;8.82;89.19
79236;BME280;69062;47.460;18.812;2024-02-26T04:31:56;99290.00;;;8.75;89.47
79236;BME280;69062;47.460;18.812;2024-02-26T04:33:59;99293.59;;;8.74;90.08
79236;BME280;69062;47.460;18.812;2024-02-26T04:36:02;99300.81;;;8.70;89.61
79236;BME280;69062;47.460;18.812;2024-02-26T04:38:05;99289.59;;;8.67;89.91
79236;BME280;69062;47.460;18.812;2024-02-26T04:40:08;99287.72;;;8.69;89.88
79236;BME280;69062;47.460;18.812;2024-02-26T04:42:14;99285.28;;;8.66;90.25
79236;BME280;69062;47.460;18.812;2024-02-26T04:44:23;99284.41;;;8.65;89.24
79236;BME280;69062;47.460;18.812;2024-02-26T04:46:26;99276.72;;;8.62;89.73
79236;BME280;69062;47.460;18.812;2024-02-26T04:48:33;99280.63;;;8.55;90.10
79236;BME280;69062;47.460;18.812;2024-02-26T04:50:36;99288.66;;;8.52;90.26
79236;BME280;69062;47.460;18.812;2024-02-26T04:52:39;99289.41;;;8.54;89.99
79236;BME280;69062;47.460;18.812;2024-02-26T04:54:42;99285.94;;;8.53;90.38
79236;BME280;69062;47.460;18.812;2024-02-26T04:56:45;99299.53;;;8.62;90.25
79236;BME280;69062;47.460;18.812;2024-02-26T04:58:48;99299.59;;;8.60;89.70
79236;BME280;69062;47.460;18.812;2024-02-26T05:00:50;99295.88;;;8.64;90.06
79236;BME280;69062;47.460;18.812;2024-02-26T05:02:53;99294.94;;;8.65;89.41
79236;BME280;69062;47.460;18.812;2024-02-26T05:04:56;99289.00;;;8.62;89.91
79236;BME280;69062;47.460;18.812;2024-02-26T05:06:59;99296.03;;;8.61;89.93
79236;BME280;69062;47.460;18.812;2024-02-26T05:09:02;99283.66;;;8.63;89.71
79236;BME280;69062;47.460;18.812;2024-02-26T05:11:06;99279.34;;;8.62;89.38
79236;BME280;69062;47.460;18.812;2024-02-26T05:13:09;99284.41;;;8.65;89.41
79236;BME280;69062;47.460;18.812;2024-02-26T05:15:11;99282.88;;;8.61;89.48
79236;BME280;69062;47.460;18.812;2024-02-26T05:17:20;99282.72;;;8.64;89.78
79236;BME280;69062;47.460;18.812;2024-02-26T05:19:26;99290.63;;;8.64;89.71
79236;BME280;69062;47.460;18.812;2024-02-26T05:21:28;99291.22;;;8.69;89.57
79236;BME280;69062;47.460;18.812;2024-02-26T05:23:31;99287.47;;;8.73;89.15
79236;BME280;69062;47.460;18.812;2024-02-26T05:25:34;99291.28;;;8.68;88.56
79236;BME280;69062;47.460;18.812;2024-02-26T05:27:37;99284.09;;;8.71;88.54
79236;BME280;69062;47.460;18.812;2024-02-26T05:29:40;99287.56;;;8.56;88.76
79236;BME280;69062;47.460;18.812;2024-02-26T05:31:43;99280.63;;;8.55;89.68
79236;BME280;69062;47.460;18.812;2024-02-26T05:33:46;99282.31;;;8.56;89.96
79236;BME280;69062;47.460;18.812;2024-02-26T05:35:49;99282.97;;;8.60;90.08
79236;BME280;69062;47.460;18.812;2024-02-26T05:37:52;99285.19;;;8.51;90.58
79236;BME280;69062;47.460;18.812;2024-02-26T05:39:56;99277.28;;;8.51;90.42
79236;BME280;69062;47.460;18.812;2024-02-26T05:41:58;99276.09;;;8.57;90.43
79236;BME280;69062;47.460;18.812;2024-02-26T05:44:01;99278.47;;;8.62;90.10
79236;BME280;69062;47.460;18.812;2024-02-26T05:46:05;99277.81;;;8.58;90.29
79236;BME280;69062;47.460;18.812;2024-02-26T05:48:08;99279.69;;;8.56;90.69
79236;BME280;69062;47.460;18.812;2024-02-26T05:50:11;99275.91;;;8.60;90.56
79236;BME280;69062;47.460;18.812;2024-02-26T05:52:15;99278.41;;;8.63;90.48
79236;BME280;69062;47.460;18.812;2024-02-26T05:54:18;99281.38;;;8.57;90.79
79236;BME280;69062;47.460;18.812;2024-02-26T05:56:22;99281.88;;;8.64;90.49
79236;BME280;69062;47.460;18.812;2024-02-26T05:58:24;99283.34;;;8.69;90.40
79236;BME280;69062;47.460;18.812;2024-02-26T06:00:27;99291.03;;;8.72;90.44
79236;BME280;69062;47.460;18.812;2024-02-26T06:02:30;99296.31;;;8.72;90.24
79236;BME280;69062;47.460;18.812;2024-02-26T06:04:33;99304.09;;;8.74;90.76
79236;BME280;69062;47.460;18.812;2024-02-26T06:06:36;99315.34;;;8.77;90.69
79236;BME280;69062;47.460;18.812;2024-02-26T06:08:45;99309.69;;;8.83;90.62
79236;BME280;69062;47.460;18.812;2024-02-26T06:10:52;99304.69;;;8.95;89.78
79236;BME280;69062;47.460;18.812;2024-02-26T06:12:57;99302.75;;;8.98;89.89
79236;BME280;69062;47.460;18.812;2024-02-26T06:15:03;99302.06;;;8.95;90.06
79236;BME280;69062;47.460;18.812;2024-02-26T06:17:08;99309.78;;;8.98;89.79
79236;BME280;69062;47.460;18.812;2024-02-26T06:19:11;99317.63;;;8.99;89.03
79236;BME280;69062;47.460;18.812;2024-02-26T06:21:15;99327.88;;;9.04;88.80
79236;BME280;69062;47.460;18.812;2024-02-26T06:23:19;99329.22;;;9.11;89.46
79236;BME280;69062;47.460;18.812;2024-02-26T06:25:22;99323.59;;;9.17;89.14
79236;BME280;69062;47.460;18.812;2024-02-26T06:27:24;99329.47;;;9.22;88.66
79236;BME280;69062;47.460;18.812;2024-02-26T06:29:27;99326.84;;;9.22;88.67
79236;BME280;69062;47.460;18.812;2024-02-26T06:31:30;99321.56;;;9.22;88.96
79236;BME280;69062;47.460;18.812;2024-02-26T06:33:33;99321.97;;;9.30;88.95
79236;BME280;69062;47.460;18.812;2024-02-26T06:35:36;99333.25;;;9.32;88.41
79236;BME280;69062;47.460;18.812;2024-02-26T06:37:39;99332.47;;;9.46;87.82
79236;BME280;69062;47.460;18.812;2024-02-26T06:39:41;99329.06;;;9.44;87.40
79236;BME280;69062;47.460;18.812;2024-02-26T06:41:44;99324.56;;;9.46;87.85
79236;BME280;69062;47.460;18.812;2024-02-26T06:43:49;99321.47;;;9.54;87.26
79236;BME280;69062;47.460;18.812;2024-02-26T06:45:52;99332.38;;;9.48;87.05
79236;BME280;69062;47.460;18.812;2024-02-26T06:47:55;99314.00;;;9.46;87.83
79236;BME280;69062;47.460;18.812;2024-02-26T06:49:59;99328.63;;;9.52;86.67
79236;BME280;69062;47.460;18.812;2024-02-26T06:52:03;99330.50;;;9.50;88.10
79236;BME280;69062;47.460;18.812;2024-02-26T06:54:07;99329.38;;;9.54;87.87
79236;BME280;69062;47.460;18.812;2024-02-26T06:56:10;99326.56;;;9.57;87.78
79236;BME280;69062;47.460;18.812;2024-02-26T06:58:13;99328.06;;;9.61;87.79
79236;BME280;69062;47.460;18.812;2024-02-26T07:00:16;99328.41;;;9.71;87.34
79236;BME280;69062;47.460;18.812;2024-02-26T07:02:20;99321.16;;;9.74;86.87
79236;BME280;69062;47.460;18.812;2024-02-26T07:04:23;99322.38;;;9.83;86.40
79236;BME280;69062;47.460;18.812;2024-02-26T07:06:27;99316.75;;;9.89;87.14
79236;BME280;69062;47.460;18.812;2024-02-26T07:08:30;99320.78;;;9.80;86.37
79236;BME280;69062;47.460;18.812;2024-02-26T07:10:32;99325.59;;;9.88;86.26
79236;BME280;69062;47.460;18.812;2024-02-26T07:12:35;99317.03;;;9.99;86.94
79236;BME280;69062;47.460;18.812;2024-02-26T07:14:40;99319.50;;;10.02;86.63
79236;BME280;69062;47.460;18.812;2024-02-26T07:16:43;99323.34;;;10.10;87.12
79236;BME280;69062;47.460;18.812;2024-02-26T07:18:47;99324.78;;;10.16;86.21
79236;BME280;69062;47.460;18.812;2024-02-26T07:20:50;99326.84;;;10.11;86.72
79236;BME280;69062;47.460;18.812;2024-02-26T07:22:53;99332.16;;;10.25;86.53
79236;BME280;69062;47.460;18.812;2024-02-26T07:24:55;99330.53;;;10.08;85.76
79236;BME280;69062;47.460;18.812;2024-02-26T07:27:03;99339.31;;;10.23;86.09
79236;BME280;69062;47.460;18.812;2024-02-26T07:29:06;99343.75;;;10.37;86.66
79236;BME280;69062;47.460;18.812;2024-02-26T07:31:09;99347.75;;;10.71;85.18
79236;BME280;69062;47.460;18.812;2024-02-26T07:33:12;99342.94;;;10.77;85.01
79236;BME280;69062;47.460;18.812;2024-02-26T07:35:15;99349.13;;;10.91;85.06
79236;BME280;69062;47.460;18.812;2024-02-26T07:37:19;99351.88;;;10.89;83.70
79236;BME280;69062;47.460;18.812;2024-02-26T07:39:22;99352.25;;;10.97;83.52
79236;BME280;69062;47.460;18.812;2024-02-26T07:41:25;99348.84;;;10.95;83.62
79236;BME280;69062;47.460;18.812;2024-02-26T07:43:28;99342.72;;;10.95;83.23
79236;BME280;69062;47.460;18.812;2024-02-26T07:45:30;99351.69;;;10.92;83.95
79236;BME280;69062;47.460;18.812;2024-02-26T07:47:33;99344.78;;;11.04;83.99
79236;BME280;69062;47.460;18.812;2024-02-26T07:49:39;99351.34;;;11.11;83.20
79236;BME280;69062;47.460;18.812;2024-02-26T07:51:44;99352.81;;;11.02;83.65
79236;BME280;69062;47.460;18.812;2024-02-26T07:53:46;99353.09;;;10.98;83.11
79236;BME280;69062;47.460;18.812;2024-02-26T07:55:49;99356.00;;;10.93;82.91
79236;BME280;69062;47.460;18.812;2024-02-26T07:57:52;99353.78;;;10.87;82.87
79236;BME280;69062;47.460;18.812;2024-02-26T07:59:55;99354.03;;;10.97;81.65
79236;BME280;69062;47.460;18.812;2024-02-26T08:02:00;99364.50;;;10.98;81.58
79236;BME280;69062;47.460;18.812;2024-02-26T08:04:05;99364.06;;;11.19;82.55
79236;BME280;69062;47.460;18.812;2024-02-26T08:06:08;99360.88;;;11.14;82.31
79236;BME280;69062;47.460;18.812;2024-02-26T08:08:11;99366.47;;;11.09;82.36
79236;BME280;69062;47.460;18.812;2024-02-26T08:10:14;99364.16;;;10.90;81.80
79236;BME280;69062;47.460;18.812;2024-02-26T08:12:27;99364.28;;;11.16;81.92
79236;BME280;69062;47.460;18.812;2024-02-26T08:14:30;99368.69;;;11.15;80.60
79236;BME280;69062;47.460;18.812;2024-02-26T08:16:37;99366.38;;;11.11;81.28
79236;BME280;69062;47.460;18.812;2024-02-26T08:18:40;99363.22;;;11.18;81.83
79236;BME280;69062;47.460;18.812;2024-02-26T08:20:44;99359.13;;;11.27;81.26
79236;BME280;69062;47.460;18.812;2024-02-26T08:22:47;99358.94;;;11.30;81.64
79236;BME280;69062;47.460;18.812;2024-02-26T08:24:50;99364.28;;;11.16;80.96
79236;BME280;69062;47.460;18.812;2024-02-26T08:26:53;99359.13;;;11.27;81.08
79236;BME280;69062;47.460;18.812;2024-02-26T08:28:56;99361.94;;;11.51;81.63
79236;BME280;69062;47.460;18.812;2024-02-26T08:31:00;99362.53;;;11.69;81.11
79236;BME280;69062;47.460;18.812;2024-02-26T08:33:03;99355.44;;;11.69;80.14
79236;BME280;69062;47.460;18.812;2024-02-26T08:35:06;99358.16;;;11.82;79.63
79236;BME280;69062;47.460;18.812;2024-02-26T08:37:09;99359.34;;;12.03;79.61
79236;BME280;69062;47.460;18.812;2024-02-26T08:39:12;99363.25;;;11.98;78.94
79236;BME280;69062;47.460;18.812;2024-02-26T08:41:16;99360.81;;;11.82;78.37
79236;BME280;69062;47.460;18.812;2024-02-26T08:43:20;99356.69;;;11.91;78.47
79236;BME280;69062;47.460;18.812;2024-02-26T08:45:23;99357.22;;;12.08;78.86
79236;BME280;69062;47.460;18.812;2024-02-26T08:47:32;99357.75;;;12.39;78.09
79236;BME280;69062;47.460;18.812;2024-02-26T08:49:35;99350.72;;;12.63;76.25
79236;BME280;69062;47.460;18.812;2024-02-26T08:51:42;99354.03;;;13.04;75.36
79236;BME280;69062;47.460;18.812;2024-02-26T08:53:46;99360.06;;;13.06;75.05
79236;BME280;69062;47.460;18.812;2024-02-26T08:55:49;99353.06;;;13.05;75.17
79236;BME280;69062;47.460;18.812;2024-02-26T08:57:52;99352.38;;;13.27;73.54
79236;BME280;69062;47.460;18.812;2024-02-26T08:59:55;99355.06;;;13.01;74.18
79236;BME280;69062;47.460;18.812;2024-02-26T09:01:58;99354.50;;;13.21;74.66
79236;BME280;69062;47.460;18.812;2024-02-26T09:04:00;99359.41;;;13.02;72.67
79236;BME280;69062;47.460;18.812;2024-02-26T09:06:03;99358.66;;;13.61;72.38
79236;BME280;69062;47.460;18.812;2024-02-26T09:08:06;99357.41;;;13.53;71.06
79236;BME280;69062;47.460;18.812;2024-02-26T09:10:12;99360.66;;;14.27;70.16
79236;BME280;69062;47.460;18.812;2024-02-26T09:12:14;99366.31;;;14.23;69.22
79236;BME280;69062;47.460;18.812;2024-02-26T09:14:18;99364.78;;;14.54;68.79
79236;BME280;69062;47.460;18.812;2024-02-26T09:16:21;99362.25;;;14.52;68.54
79236;BME280;69062;47.460;18.812;2024-02-26T09:18:24;99361.38;;;14.29;69.44
79236;BME280;69062;47.460;18.812;2024-02-26T09:20:27;99367.16;;;14.23;69.86
79236;BME280;69062;47.460;18.812;2024-02-26T09:22:30;99363.94;;;13.96;70.71
79236;BME280;69062;47.460;18.812;2024-02-26T09:24:32;99370.28;;;13.47;70.03
79236;BME280;69062;47.460;18.812;2024-02-26T09:26:36;99372.16;;;13.58;72.28
79236;BME280;69062;47.460;18.812;2024-02-26T09:28:39;99374.53;;;13.49;72.77
79236;BME280;69062;47.460;18.812;2024-02-26T09:30:42;99369.41;;;13.35;71.83
79236;BME280;69062;47.460;18.812;2024-02-26T09:32:46;99372.50;;;13.29;72.72
79236;BME280;69062;47.460;18.812;2024-02-26T09:34:51;99377.41;;;13.10;72.56
79236;BME280;69062;47.460;18.812;2024-02-26T09:36:53;99372.06;;;12.98;73.81
79236;BME280;69062;47.460;18.812;2024-02-26T09:39:06;99381.00;;;12.85;74.15
79236;BME280;69062;47.460;18.812;2024-02-26T09:41:17;99378.25;;;13.10;74.46
79236;BME280;69062;47.460;18.812;2024-02-26T09:43:23;99387.13;;;12.85;74.39
79236;BME280;69062;47.460;18.812;2024-02-26T09:45:30;99382.41;;;13.02;74.03
79236;BME280;69062;47.460;18.812;2024-02-26T09:47:36;99378.22;;;12.86;74.92
79236;BME280;69062;47.460;18.812;2024-02-26T09:49:39;99383.09;;;12.80;73.80
79236;BME280;69062;47.460;18.812;2024-02-26T09:51:43;99383.25;;;13.02;74.51
79236;BME280;69062;47.460;18.812;2024-02-26T09:53:46;99385.88;;;12.65;73.17
79236;BME280;69062;47.460;18.812;2024-02-26T09:55:52;99384.72;;;12.69;74.17
79236;BME280;69062;47.460;18.812;2024-02-26T09:57:55;99386.41;;;12.70;73.98
79236;BME280;69062;47.460;18.812;2024-02-26T10:00:03;99385.44;;;12.97;74.38
79236;BME280;69062;47.460;18.812;2024-02-26T10:02:12;99380.56;;;12.91;73.71
79236;BME280;69062;47.460;18.812;2024-02-26T10:04:15;99383.06;;;13.05;74.25
79236;BME280;69062;47.460;18.812;2024-02-26T10:06:19;99380.69;;;13.13;72.26
79236;BME280;69062;47.460;18.812;2024-02-26T10:08:22;99374.19;;;13.17;73.14
79236;BME280;69062;47.460;18.812;2024-02-26T10:10:28;99378.38;;;13.21;71.85
79236;BME280;69062;47.460;18.812;2024-02-26T10:12:31;99375.66;;;12.97;72.78
79236;BME280;69062;47.460;18.812;2024-02-26T10:14:35;99378.09;;;12.88;73.06
79236;BME280;69062;47.460;18.812;2024-02-26T10:16:39;99366.72;;;13.11;72.96
79236;BME280;69062;47.460;18.812;2024-02-26T10:18:49;99375.47;;;12.88;72.02
79236;BME280;69062;47.460;18.812;2024-02-26T10:20:59;99364.63;;;13.04;72.28
79236;BME280;69062;47.460;18.812;2024-02-26T10:23:03;99370.50;;;13.33;72.46
79236;BME280;69062;47.460;18.812;2024-02-26T10:25:07;99365.94;;;13.22;72.03
79236;BME280;69062;47.460;18.812;2024-02-26T10:27:10;99373.88;;;13.35;70.52
79236;BME280;69062;47.460;18.812;2024-02-26T10:29:13;99364.13;;;13.70;70.37
79236;BME280;69062;47.460;18.812;2024-02-26T10:31:16;99366.00;;;13.57;69.13
79236;BME280;69062;47.460;18.812;2024-02-26T10:33:19;99356.16;;;13.70;68.76
79236;BME280;69062;47.460;18.812;2024-02-26T10:35:22;99356.94;;;13.84;67.92
79236;BME280;69062;47.460;18.812;2024-02-26T10:37:25;99352.44;;;14.30;67.33
79236;BME280;69062;47.460;18.812;2024-02-26T10:39:31;99357.34;;;14.01;66.34
79236;BME280;69062;47.460;18.812;2024-02-26T10:41:34;99362.81;;;14.45;67.17
79236;BME280;69062;47.460;18.812;2024-02-26T10:43:37;99358.69;;;14.41;65.23
79236;BME280;69062;47.460;18.812;2024-02-26T10:45:40;99353.28;;;14.20;65.45
79236;BME280;69062;47.460;18.812;2024-02-26T10:47:45;99349.91;;;13.83;67.61
79236;BME280;69062;47.460;18.812;2024-02-26T10:49:50;99359.91;;;14.14;67.14
79236;BME280;69062;47.460;18.812;2024-02-26T10:51:55;99360.56;;;14.51;67.99